createdAt,value
2022-10-20T00:04:13.779Z,4.26
2022-10-20T00:09:22.135Z,4.02
2022-10-20T00:14:27.829Z,3.77
2022-10-20T00:19:32.762Z,3.55
2022-10-20T00:24:36.693Z,3.41
2022-10-20T00:29:40.350Z,3.35
2022-10-20T00:34:43.576Z,3.42
2022-10-20T00:39:46.830Z,3.56
2022-10-20T00:44:57.864Z,3.68
2022-10-20T00:50:22.961Z,3.73
2022-10-20T00:55:29.483Z,3.77
2022-10-20T01:06:42.544Z,3.72
2022-10-20T01:12:01.444Z,3.68
2022-10-20T01:17:26.643Z,3.65
2022-10-20T01:22:53.030Z,3.60
2022-10-20T01:28:02.124Z,3.58
2022-10-20T01:38:41.395Z,3.65
2022-10-20T01:43:46.718Z,3.65
2022-10-20T01:48:50.686Z,3.60
2022-10-20T01:53:53.820Z,3.54
2022-10-20T01:59:10.866Z,3.50
2022-10-20T02:04:14.800Z,3.46
2022-10-20T02:09:43.337Z,3.42
2022-10-20T02:15:05.924Z,3.37
2022-10-20T02:20:10.842Z,3.33
2022-10-20T02:25:14.697Z,3.30
2022-10-20T02:30:18.931Z,3.28
2022-10-20T02:35:31.217Z,3.27
2022-10-20T02:40:34.393Z,3.26
2022-10-20T02:45:37.686Z,3.22
2022-10-20T02:50:40.796Z,3.15
2022-10-20T02:55:44.075Z,3.07
2022-10-20T03:00:50.077Z,2.99
2022-10-20T03:05:53.289Z,2.94
2022-10-20T03:10:56.440Z,2.86
2022-10-20T03:15:59.905Z,2.77
2022-10-20T03:21:05.436Z,2.71
2022-10-20T03:26:10.895Z,2.69
2022-10-20T03:31:14.083Z,2.67
2022-10-20T03:36:17.325Z,2.54
2022-10-20T03:41:20.532Z,2.40
2022-10-20T03:46:23.724Z,2.29
2022-10-20T03:51:27.172Z,2.19
2022-10-20T03:56:37.525Z,2.07
2022-10-20T04:01:47.155Z,2.01
2022-10-20T04:06:50.619Z,1.96
2022-10-20T04:11:53.605Z,1.95
2022-10-20T04:16:56.816Z,1.95
2022-10-20T04:22:00.031Z,1.98
2022-10-20T04:27:05.543Z,1.98
2022-10-20T04:32:11.027Z,1.90
2022-10-20T04:37:14.185Z,1.81
2022-10-20T04:42:20.276Z,1.72
2022-10-20T04:47:23.436Z,1.70
2022-10-20T04:52:26.604Z,1.69
2022-10-20T04:57:29.775Z,1.67
2022-10-20T05:02:33.012Z,1.66
2022-10-20T05:07:36.614Z,1.63
2022-10-20T05:12:40.083Z,1.57
2022-10-20T05:17:43.408Z,1.54
2022-10-20T05:22:46.589Z,1.51
2022-10-20T05:27:49.749Z,1.51
2022-10-20T05:32:53.106Z,1.53
2022-10-20T05:37:57.129Z,1.54
2022-10-20T05:43:00.633Z,1.57
2022-10-20T05:48:03.747Z,1.61
2022-10-20T05:53:06.933Z,1.72
2022-10-20T05:58:10.101Z,1.84
2022-10-20T06:03:16.146Z,2.01
2022-10-20T06:08:22.411Z,2.19
2022-10-20T06:13:25.698Z,2.36
2022-10-20T06:18:28.990Z,2.52
2022-10-20T06:23:32.538Z,2.66
2022-10-20T06:28:38.531Z,2.81
2022-10-20T06:33:42.048Z,2.97
2022-10-20T06:38:45.658Z,3.15
2022-10-20T06:43:49.109Z,3.34
2022-10-20T06:48:55.015Z,3.54
2022-10-20T06:54:02.998Z,3.75
2022-10-20T06:59:06.291Z,3.95
2022-10-20T07:04:15.360Z,4.17
2022-10-20T07:09:19.535Z,4.43
2022-10-20T07:14:24.085Z,4.69
2022-10-20T07:19:27.399Z,4.94
2022-10-20T07:24:33.014Z,5.17
2022-10-20T07:29:38.036Z,5.43
2022-10-20T07:34:41.381Z,5.70
2022-10-20T07:39:44.556Z,5.94
2022-10-20T07:44:49.379Z,6.19
2022-10-20T07:49:52.556Z,6.42
2022-10-20T07:55:06.327Z,6.63
2022-10-20T08:00:19.183Z,6.83
2022-10-20T08:05:22.718Z,7.04
2022-10-20T08:10:26.078Z,7.23
2022-10-20T08:15:29.268Z,7.44
2022-10-20T08:20:35.007Z,7.66
2022-10-20T08:25:40.155Z,7.86
2022-10-20T08:30:43.411Z,8.07
2022-10-20T08:35:51.821Z,8.25
2022-10-20T08:40:54.969Z,8.53
2022-10-20T08:46:02.857Z,8.77
2022-10-20T08:51:06.220Z,8.99
2022-10-20T08:56:13.429Z,9.24
2022-10-20T09:01:29.487Z,9.50
2022-10-20T09:06:35.321Z,9.73
2022-10-20T09:11:41.410Z,9.88
2022-10-20T09:17:01.273Z,10.00
2022-10-20T09:22:07.083Z,10.05
2022-10-20T09:27:23.403Z,10.19
2022-10-20T09:32:51.173Z,10.35
2022-10-20T09:38:03.676Z,10.54
2022-10-20T09:43:12.388Z,10.74
2022-10-20T09:48:19.643Z,10.90
2022-10-20T09:53:29.708Z,11.03
2022-10-20T09:58:35.505Z,11.18
2022-10-20T10:03:47.558Z,11.35
2022-10-20T10:08:50.825Z,11.47
2022-10-20T10:13:54.667Z,11.60
2022-10-20T10:19:03.140Z,11.74
2022-10-20T10:24:06.856Z,11.79
2022-10-20T10:29:33.310Z,11.86
2022-10-20T10:35:15.179Z,12.00
2022-10-20T10:40:24.852Z,12.20
2022-10-20T10:45:52.175Z,12.35
2022-10-20T10:51:01.082Z,12.40
2022-10-20T10:56:23.075Z,12.37
2022-10-20T11:01:33.016Z,12.37
2022-10-20T11:06:58.358Z,12.38
2022-10-20T11:12:23.548Z,12.43
2022-10-20T11:18:01.213Z,12.37
2022-10-20T11:23:17.099Z,12.41
2022-10-20T11:28:44.855Z,12.51
2022-10-20T11:33:54.250Z,12.61
2022-10-20T11:38:57.568Z,12.66
2022-10-20T11:44:13.680Z,12.71
2022-10-20T11:49:18.793Z,12.71
2022-10-20T11:54:41.044Z,12.74
2022-10-20T12:00:05.935Z,12.81
2022-10-20T12:05:21.899Z,12.82
2022-10-20T12:10:29.356Z,12.84
2022-10-20T12:15:33.214Z,12.84
2022-10-20T12:20:36.383Z,12.86
2022-10-20T12:25:41.529Z,12.90
2022-10-20T12:30:46.585Z,12.96
2022-10-20T12:36:14.371Z,12.98
2022-10-20T12:41:42.222Z,13.01
2022-10-20T12:47:04.185Z,13.02
2022-10-20T12:52:09.559Z,13.01
2022-10-20T12:57:46.552Z,13.04
2022-10-20T13:02:56.742Z,13.08
2022-10-20T13:08:03.706Z,13.07
2022-10-20T13:13:13.217Z,13.01
2022-10-20T13:18:29.429Z,12.97
2022-10-20T13:23:43.828Z,12.95
2022-10-20T13:28:48.961Z,12.94
2022-10-20T13:34:05.909Z,12.80
2022-10-20T13:39:42.563Z,12.70
2022-10-20T13:44:55.745Z,12.64
2022-10-20T13:50:09.081Z,12.60
2022-10-20T13:55:51.758Z,12.59
2022-10-20T14:01:04.685Z,12.56
2022-10-20T14:06:40.459Z,12.51
2022-10-20T14:11:46.464Z,12.43
2022-10-20T14:17:04.657Z,12.34
2022-10-20T14:22:16.493Z,12.25
2022-10-20T14:27:24.606Z,12.18
2022-10-20T14:32:30.697Z,12.11
2022-10-20T14:37:40.421Z,12.05
2022-10-20T14:42:45.097Z,12.05
2022-10-20T14:47:49.084Z,11.98
2022-10-20T14:52:54.210Z,11.90
2022-10-20T14:58:02.222Z,11.80
2022-10-20T15:03:10.758Z,11.70
2022-10-20T15:08:36.083Z,11.60
2022-10-20T15:14:03.832Z,11.48
2022-10-20T15:19:36.177Z,11.41
2022-10-20T15:24:51.784Z,11.30
2022-10-20T15:30:19.832Z,11.11
2022-10-20T15:35:31.578Z,10.89
2022-10-20T15:40:37.875Z,10.65
2022-10-20T15:45:54.674Z,10.41
2022-10-20T15:51:31.902Z,10.15
2022-10-20T15:56:38.955Z,9.88
2022-10-20T16:01:48.796Z,9.66
2022-10-20T16:07:02.755Z,9.44
2022-10-20T16:12:30.947Z,9.21
2022-10-20T16:17:46.142Z,8.95
2022-10-20T16:22:52.774Z,8.72
2022-10-20T16:27:56.340Z,8.53
2022-10-20T16:33:05.097Z,8.34
2022-10-20T16:38:08.659Z,8.15
2022-10-20T16:43:51.078Z,7.98
2022-10-20T16:48:58.088Z,7.83
2022-10-20T16:54:11.142Z,7.76
2022-10-20T16:59:36.206Z,7.69
2022-10-20T17:04:47.130Z,7.63
2022-10-20T17:09:58.412Z,7.51
2022-10-20T17:15:01.917Z,7.37
2022-10-20T17:20:08.836Z,7.23
2022-10-20T17:25:14.254Z,7.12
2022-10-20T17:30:17.881Z,7.00
2022-10-20T17:35:21.538Z,6.90
2022-10-20T17:40:25.288Z,6.79
2022-10-20T17:45:41.299Z,6.68
2022-10-20T17:50:49.728Z,6.59
2022-10-20T17:56:04.803Z,6.49
2022-10-20T18:01:21.088Z,6.42
2022-10-20T18:06:31.168Z,6.33
2022-10-20T18:11:38.890Z,6.25
2022-10-20T18:16:45.561Z,6.19
2022-10-20T18:21:52.253Z,6.11
2022-10-20T18:26:58.496Z,6.02
2022-10-20T18:32:02.002Z,5.97
2022-10-20T18:37:18.587Z,5.93
2022-10-20T18:42:29.906Z,5.88
2022-10-20T18:47:42.194Z,5.87
2022-10-20T18:52:46.396Z,5.82
2022-10-20T18:57:55.679Z,5.75
2022-10-20T19:03:01.566Z,5.70
2022-10-20T19:08:07.422Z,5.70
2022-10-20T19:13:11.774Z,5.67
2022-10-20T19:18:17.231Z,5.64
2022-10-20T19:23:22.836Z,5.63
2022-10-20T19:28:42.941Z,5.60
2022-10-20T19:33:53.935Z,5.60
2022-10-20T19:38:57.636Z,5.57
2022-10-20T19:44:02.242Z,5.53
2022-10-20T19:54:11.124Z,5.59
2022-10-20T19:59:21.176Z,5.60
2022-10-20T20:04:25.430Z,5.57
2022-10-20T20:09:34.168Z,5.50
2022-10-20T20:14:37.921Z,5.46
2022-10-20T20:19:41.312Z,5.42
2022-10-20T20:24:45.888Z,5.37
2022-10-20T20:29:50.738Z,5.33
2022-10-20T20:34:54.922Z,5.29
2022-10-20T20:39:59.597Z,5.25
2022-10-20T20:45:03.306Z,5.24
2022-10-20T20:50:13.214Z,5.21
2022-10-20T20:55:16.773Z,5.16
2022-10-20T21:00:25.873Z,5.11
2022-10-20T21:05:47.889Z,5.07
2022-10-20T21:11:23.368Z,5.07
2022-10-20T21:16:36.457Z,5.10
2022-10-20T21:21:44.972Z,5.06
2022-10-20T21:26:48.966Z,5.04
2022-10-20T21:31:52.643Z,5.01
2022-10-20T21:36:56.417Z,5.00
2022-10-20T21:42:02.808Z,5.04
2022-10-20T21:47:11.629Z,5.08
2022-10-20T21:52:15.944Z,5.10
2022-10-20T21:57:19.425Z,5.12
2022-10-20T22:02:22.915Z,5.13
2022-10-20T22:07:32.134Z,5.12
2022-10-20T22:12:37.809Z,5.10
2022-10-20T22:17:42.323Z,5.06
2022-10-20T22:22:53.081Z,5.02
2022-10-20T22:27:58.946Z,4.98
2022-10-20T22:33:04.456Z,4.93
2022-10-20T22:38:15.396Z,4.86
2022-10-20T22:43:26.245Z,4.78
2022-10-20T22:48:30.973Z,4.71
2022-10-20T22:53:39.078Z,4.62
2022-10-20T22:58:49.161Z,4.52
2022-10-20T23:04:05.250Z,4.43
2022-10-20T23:09:16.866Z,4.38
2022-10-20T23:14:23.060Z,4.35
2022-10-20T23:19:29.685Z,4.36
2022-10-20T23:24:37.745Z,4.36
2022-10-20T23:29:41.651Z,4.37
2022-10-20T23:34:53.865Z,4.33
2022-10-20T23:39:57.463Z,4.29
2022-10-20T23:45:03.066Z,4.23
2022-10-20T23:50:07.871Z,4.19
2022-10-20T23:55:17.618Z,4.17
